Time;durP1;ratioP1;P1;durP2;ratioP2;P2;SDS_P1;SDS_P2;PMS_P1;PMS_P2;Temp;Humidity;BMP_temperature;BMP_pressure;BME280_temperature;BME280_humidity;BME280_pressure;Samples;Min_cycle;Max_cycle;Signal;HPM_P1;HPM_P2
2022/08/28 00:02:03;;;;;;;10.43;9.63;;;20.70;16.90;;;;;;5052211;28;20041;-86
2022/08/28 00:04:29;;;;;;;10.32;9.43;;;20.60;18.10;;;;;;5052117;28;20021;-86
2022/08/28 00:06:55;;;;;;;10.02;9.18;;;20.60;15.60;;;;;;5052057;28;20405;-86
2022/08/28 00:09:21;;;;;;;10.77;9.77;;;20.60;20.10;;;;;;5052162;28;20017;-86
2022/08/28 00:11:48;;;;;;;10.38;9.40;;;20.60;18.30;;;;;;5051719;28;20115;-86
2022/08/28 00:14:13;;;;;;;11.32;10.10;;;20.60;20.50;;;;;;5051788;28;20025;-87
2022/08/28 00:16:39;;;;;;;11.38;10.05;;;20.50;18.00;;;;;;5052025;28;20041;-86
2022/08/28 00:19:05;;;;;;;10.50;9.50;;;20.40;15.60;;;;;;5051992;28;20036;-87
2022/08/28 00:21:32;;;;;;;11.35;9.85;;;20.40;18.60;;;;;;5051995;28;20017;-87
2022/08/28 00:23:58;;;;;;;10.38;9.43;;;20.40;19.70;;;;;;5051942;28;20053;-86
2022/08/28 00:29:09;;;;;;;10.68;9.55;;;20.50;29.80;;;;;;5051715;28;20072;-87
2022/08/28 00:31:38;;;;;;;10.98;9.88;;;20.50;20.70;;;;;;5051874;28;20021;-87
2022/08/28 00:34:05;;;;;;;10.57;9.63;;;20.40;22.80;;;;;;5051868;28;20033;-87
2022/08/28 00:36:31;;;;;;;10.98;10.02;;;20.20;22.90;;;;;;5051715;28;20037;-86
2022/08/28 00:38:59;;;;;;;11.18;10.07;;;20.10;20.40;;;;;;5053928;28;20115;-87
2022/08/28 00:41:25;;;;;;;10.50;9.60;;;20.10;20.50;;;;;;5055044;28;20051;-86
2022/08/28 00:44:14;;;;;;;11.00;9.93;;;20.20;22.60;;;;;;5055462;28;20052;-87
2022/08/28 00:46:43;;;;;;;10.98;9.60;;;20.30;26.20;;;;;;5055165;28;20111;-86
2022/08/28 00:49:09;;;;;;;10.77;9.88;;;20.20;22.60;;;;;;5055229;28;20032;-87
2022/08/28 00:54:22;;;;;;;10.88;9.88;;;20.20;22.20;;;;;;5055377;28;20443;-86
2022/08/28 00:56:48;;;;;;;10.70;9.80;;;20.10;22.90;;;;;;5054758;28;20037;-86
2022/08/28 00:59:17;;;;;;;10.35;9.45;;;20.20;22.40;;;;;;5055019;28;20025;-86
2022/08/28 01:01:45;;;;;;;10.75;9.93;;;20.30;23.50;;;;;;5054930;28;20108;-87
2022/08/28 01:04:15;;;;;;;11.20;10.25;;;20.30;23.90;;;;;;5054882;28;20487;-86
2022/08/28 01:06:44;;;;;;;11.20;10.23;;;20.10;26.10;;;;;;5055169;28;20070;-87
2022/08/28 01:09:11;;;;;;;10.60;9.73;;;20.00;25.30;;;;;;5054941;28;20103;-86
2022/08/28 01:11:40;;;;;;;10.52;9.52;;;20.10;26.40;;;;;;5054339;28;20048;-86
2022/08/28 01:14:07;;;;;;;10.95;9.95;;;20.20;26.50;;;;;;5054491;28;20037;-87
2022/08/28 01:16:33;;;;;;;10.90;10.00;;;20.00;22.10;;;;;;5054735;28;20041;-87
2022/08/28 01:19:00;;;;;;;11.05;10.05;;;20.00;22.80;;;;;;5054675;28;20021;-86
2022/08/28 01:21:36;;;;;;;11.00;10.10;;;19.90;22.30;;;;;;5054670;28;20032;-87
2022/08/28 01:24:04;;;;;;;11.35;10.35;;;19.90;26.60;;;;;;5054656;28;20020;-86
2022/08/28 01:26:30;;;;;;;11.38;10.30;;;19.90;19.80;;;;;;5054253;28;20086;-86
2022/08/28 01:28:58;;;;;;;11.43;10.30;;;19.90;22.60;;;;;;5054268;28;20036;-87
2022/08/28 01:31:26;;;;;;;11.57;10.68;;;19.80;24.70;;;;;;5054309;28;20040;-87
2022/08/28 01:33:52;;;;;;;12.48;11.38;;;19.80;25.40;;;;;;5054369;28;20025;-87
2022/08/28 01:36:18;;;;;;;11.88;10.77;;;19.70;22.90;;;;;;5054251;28;20048;-86
2022/08/28 01:38:48;;;;;;;11.57;10.50;;;19.70;22.00;;;;;;5054014;28;20052;-86
2022/08/28 01:41:15;;;;;;;11.98;10.88;;;19.70;26.30;;;;;;5054217;28;20389;-86
2022/08/28 01:43:42;;;;;;;11.90;10.82;;;19.70;27.50;;;;;;5054118;28;20131;-86
2022/08/28 01:46:09;;;;;;;12.90;10.98;;;19.60;28.60;;;;;;5054103;28;20443;-86
2022/08/28 01:48:38;;;;;;;11.52;10.52;;;19.70;26.80;;;;;;5054133;28;20021;-87
2022/08/28 01:51:04;;;;;;;11.82;10.77;;;19.70;27.70;;;;;;5052975;28;20029;-86
2022/08/28 01:53:31;;;;;;;12.15;11.00;;;19.50;26.70;;;;;;5053587;28;20504;-86
2022/08/28 01:56:00;;;;;;;12.82;11.52;;;19.60;27.20;;;;;;5053978;28;20087;-87
2022/08/28 01:58:27;;;;;;;11.43;10.45;;;19.50;27.20;;;;;;5053947;28;20024;-86
2022/08/28 02:00:52;;;;;;;12.05;11.05;;;19.50;24.70;;;;;;5053938;28;20048;-87
2022/08/28 02:03:18;;;;;;;12.85;11.55;;;19.50;24.10;;;;;;5053841;28;20025;-87
2022/08/28 02:05:44;;;;;;;12.07;10.98;;;19.60;28.10;;;;;;5053805;28;20060;-86
2022/08/28 02:08:10;;;;;;;12.70;11.48;;;19.50;25.20;;;;;;5053304;28;20060;-86
2022/08/28 02:10:38;;;;;;;12.77;11.57;;;19.50;22.80;;;;;;5053735;28;20104;-87
2022/08/28 02:13:04;;;;;;;12.38;11.27;;;19.40;27.50;;;;;;5053559;28;20053;-86
2022/08/28 02:15:32;;;;;;;13.52;12.13;;;19.50;28.70;;;;;;5053261;28;20037;-86
2022/08/28 02:17:58;;;;;;;12.57;11.48;;;19.40;29.50;;;;;;5053582;28;20028;-86
2022/08/28 02:20:25;;;;;;;12.93;11.73;;;19.40;28.30;;;;;;5053472;28;20025;-86
2022/08/28 02:22:51;;;;;;;12.77;11.57;;;19.40;28.30;;;;;;5053081;28;20397;-86
2022/08/28 02:25:17;;;;;;;12.90;11.70;;;19.30;24.40;;;;;;5053486;28;20024;-86
2022/08/28 02:27:44;;;;;;;12.38;11.27;;;19.20;24.70;;;;;;5053166;28;20087;-86
2022/08/28 02:30:12;;;;;;;12.18;10.90;;;19.30;23.00;;;;;;5053187;28;20036;-87
2022/08/28 02:32:38;;;;;;;12.18;11.07;;;19.20;27.40;;;;;;5053175;28;20540;-86
2022/08/28 02:35:06;;;;;;;12.30;11.30;;;19.20;26.00;;;;;;5053071;28;20025;-87
2022/08/28 02:37:32;;;;;;;12.07;10.98;;;19.20;29.10;;;;;;5052690;28;20021;-86
2022/08/28 02:39:58;;;;;;;12.95;11.50;;;19.20;27.50;;;;;;5035325;28;20036;-86
2022/08/28 02:42:25;;;;;;;13.10;11.88;;;19.30;28.00;;;;;;5053022;28;20545;-86
2022/08/28 02:44:51;;;;;;;12.02;11.02;;;19.30;23.90;;;;;;5052906;28;20025;-86
2022/08/28 02:47:17;;;;;;;12.13;11.02;;;19.20;25.60;;;;;;5052938;28;20447;-87
2022/08/28 02:49:43;;;;;;;12.25;11.05;;;19.10;25.60;;;;;;5053006;28;20057;-86
2022/08/28 02:52:09;;;;;;;13.27;11.95;;;19.10;26.50;;;;;;5052581;28;20021;-86
2022/08/28 02:54:38;;;;;;;13.52;12.20;;;19.10;26.70;;;;;;5034991;28;20075;-86
2022/08/28 02:57:05;;;;;;;12.95;11.73;;;19.00;25.10;;;;;;5052760;28;20041;-87
2022/08/28 02:59:31;;;;;;;12.82;11.50;;;19.00;29.10;;;;;;5052629;28;20025;-87
2022/08/28 03:01:57;;;;;;;12.82;11.52;;;19.00;21.80;;;;;;5052408;28;20025;-86
2022/08/28 03:04:22;;;;;;;12.82;11.63;;;19.00;22.10;;;;;;5052668;28;20108;-86
2022/08/28 03:06:49;;;;;;;12.88;11.77;;;18.90;23.40;;;;;;5052434;28;20170;-86
2022/08/28 03:09:15;;;;;;;13.55;12.30;;;18.90;23.90;;;;;;5034757;28;20044;-87
2022/08/28 03:11:40;;;;;;;12.68;11.52;;;18.90;26.00;;;;;;5052522;28;20493;-87
2022/08/28 03:14:06;;;;;;;12.32;11.02;;;18.90;25.80;;;;;;5052456;28;20029;-86
2022/08/28 03:16:33;;;;;;;12.77;11.57;;;18.80;24.70;;;;;;5052602;28;20860;-86
2022/08/28 03:18:58;;;;;;;13.18;11.95;;;18.80;25.10;;;;;;5052555;28;20025;-86
2022/08/28 03:21:24;;;;;;;13.85;12.55;;;18.80;26.50;;;;;;5052240;28;20366;-87
2022/08/28 03:23:50;;;;;;;13.55;12.25;;;18.80;24.20;;;;;;5052395;28;20025;-86
2022/08/28 03:26:18;;;;;;;13.38;12.07;;;18.90;24.50;;;;;;5052472;28;20029;-86
2022/08/28 03:28:49;;;;;;;13.48;12.18;;;18.80;29.70;;;;;;5052199;28;20052;-86
2022/08/28 03:31:18;;;;;;;12.85;11.65;;;18.70;31.50;;;;;;5052453;28;20052;-86
2022/08/28 03:33:45;;;;;;;13.48;12.27;;;18.80;30.70;;;;;;5052368;28;20021;-86
2022/08/28 03:36:14;;;;;;;14.32;12.93;;;18.80;30.40;;;;;;5051827;28;20482;-86
2022/08/28 03:38:40;;;;;;;13.27;12.07;;;18.70;31.20;;;;;;5052408;28;20033;-86
2022/08/28 03:41:14;;;;;;;12.70;11.60;;;18.80;23.80;;;;;;5052430;28;20033;-86
2022/08/28 03:43:40;;;;;;;13.38;12.10;;;18.70;31.20;;;;;;5052195;28;20043;-86
2022/08/28 03:46:07;;;;;;;13.38;12.10;;;18.60;27.40;;;;;;5052386;28;20025;-86
2022/08/28 03:48:35;;;;;;;13.23;12.10;;;18.60;31.90;;;;;;5052232;28;20029;-86
2022/08/28 03:51:05;;;;;;;14.02;12.77;;;18.50;30.70;;;;;;5052056;28;20036;-87
2022/08/28 03:53:31;;;;;;;14.05;12.73;;;18.60;31.20;;;;;;5052129;28;20037;-86
2022/08/28 03:55:57;;;;;;;14.18;12.77;;;18.60;29.40;;;;;;5052227;28;20385;-87
2022/08/28 03:58:25;;;;;;;13.35;12.20;;;18.50;27.30;;;;;;5052262;28;20028;-86
2022/08/28 04:00:50;;;;;;;15.18;13.27;;;18.60;31.20;;;;;;5052031;28;20255;-87
2022/08/28 04:03:17;;;;;;;13.75;12.25;;;18.60;27.20;;;;;;5052301;28;20025;-86
2022/08/28 04:05:45;;;;;;;14.40;12.90;;;18.50;30.80;;;;;;5051770;28;20033;-86
2022/08/28 04:08:16;;;;;;;14.27;12.88;;;18.60;31.10;;;;;;5052090;28;20067;-86
2022/08/28 04:10:45;;;;;;;13.80;12.52;;;18.50;31.00;;;;;;5052100;28;20029;-87
2022/08/28 04:13:13;;;;;;;14.30;12.90;;;18.40;40.90;;;;;;5053112;28;20029;-86
2022/08/28 04:15:40;;;;;;;14.45;13.20;;;18.50;31.40;;;;;;5055645;28;20503;-87
2022/08/28 04:18:07;;;;;;;13.65;12.48;;;18.50;30.20;;;;;;5055738;28;20017;-86
2022/08/28 04:20:33;;;;;;;14.20;12.80;;;18.50;30.90;;;;;;5055801;28;20500;-87
2022/08/28 04:23:00;;;;;;;14.27;13.07;;;18.40;28.60;;;;;;5055672;28;20104;-86
2022/08/28 04:25:25;;;;;;;13.57;12.13;;;18.40;32.00;;;;;;5055743;28;20025;-87
2022/08/28 04:27:51;;;;;;;13.90;12.60;;;18.30;31.80;;;;;;5055436;28;20052;-87
2022/08/28 04:30:17;;;;;;;14.27;12.90;;;18.30;34.20;;;;;;5055473;28;20371;-86
2022/08/28 04:32:43;;;;;;;14.82;13.50;;;18.30;34.20;;;;;;5055127;28;20036;-87
2022/08/28 04:35:10;;;;;;;13.98;12.57;;;18.30;30.30;;;;;;5055468;28;20025;-87
2022/08/28 04:37:37;;;;;;;14.63;13.15;;;18.20;34.50;;;;;;5055491;28;20033;-86
2022/08/28 04:40:05;;;;;;;14.05;12.75;;;18.20;33.00;;;;;;5055484;28;20041;-86
2022/08/28 04:42:31;;;;;;;14.27;12.90;;;18.10;34.70;;;;;;5055162;28;20024;-86
2022/08/28 04:44:58;;;;;;;16.50;14.02;;;18.10;32.40;;;;;;5055329;28;20021;-87
2022/08/28 04:47:25;;;;;;;14.07;12.80;;;18.20;31.90;;;;;;5054875;28;20025;-87
2022/08/28 04:49:50;;;;;;;14.15;12.80;;;18.10;36.10;;;;;;5055268;28;20124;-86
2022/08/28 04:52:16;;;;;;;14.85;13.55;;;18.20;35.10;;;;;;5055244;28;20048;-87
2022/08/28 04:54:42;;;;;;;13.77;12.57;;;18.20;32.00;;;;;;5055136;28;20032;-86
2022/08/28 04:57:07;;;;;;;15.13;13.73;;;18.10;34.50;;;;;;5055014;28;20033;-87
2022/08/28 04:59:33;;;;;;;15.18;13.77;;;18.10;31.90;;;;;;5054955;28;20119;-87
2022/08/28 05:01:59;;;;;;;15.25;13.77;;;18.00;32.30;;;;;;5054618;28;20032;-87
2022/08/28 05:04:25;;;;;;;14.90;13.68;;;18.00;33.00;;;;;;5054895;28;20485;-87
2022/08/28 05:06:51;;;;;;;15.00;13.50;;;18.10;34.30;;;;;;5036987;28;20398;-87
2022/08/28 05:09:18;;;;;;;15.05;13.65;;;18.20;33.20;;;;;;5054929;28;20021;-87
2022/08/28 05:11:45;;;;;;;15.30;13.60;;;18.10;37.70;;;;;;5054746;28;20103;-86
2022/08/28 05:14:11;;;;;;;13.95;12.65;;;18.00;38.80;;;;;;5054405;28;20025;-87
2022/08/28 05:16:46;;;;;;;14.60;13.32;;;18.10;31.90;;;;;;5054391;28;20033;-86
2022/08/28 05:19:12;;;;;;;15.07;13.57;;;18.20;38.40;;;;;;5054719;28;20393;-87
2022/08/28 05:21:39;;;;;;;14.77;13.48;;;18.20;37.40;;;;;;5054625;28;20027;-87
2022/08/28 05:24:06;;;;;;;14.35;13.05;;;18.10;35.70;;;;;;5054237;28;20108;-87
2022/08/28 05:26:32;;;;;;;14.52;13.07;;;18.20;39.50;;;;;;5054543;28;20025;-87
2022/08/28 05:28:58;;;;;;;14.70;13.23;;;18.20;34.40;;;;;;5054173;28;20041;-87
2022/08/28 05:31:25;;;;;;;14.40;13.10;;;18.30;37.40;;;;;;5036257;28;20021;-86
2022/08/28 05:33:52;;;;;;;14.63;13.32;;;18.40;38.70;;;;;;5054416;28;20463;-87
2022/08/28 05:36:20;;;;;;;15.55;14.05;;;18.30;35.00;;;;;;5054203;28;20032;-87
2022/08/28 05:38:47;;;;;;;14.75;13.27;;;18.30;42.10;;;;;;5054185;28;20048;-87
2022/08/28 05:41:22;;;;;;;14.90;13.60;;;18.30;35.20;;;;;;5054390;28;20025;-87
2022/08/28 05:43:48;;;;;;;14.60;12.60;;;18.40;39.30;;;;;;5054258;28;20025;-87
2022/08/28 05:46:15;;;;;;;14.60;13.30;;;18.40;35.50;;;;;;5053902;28;20096;-87
2022/08/28 05:48:42;;;;;;;14.35;13.05;;;18.40;39.10;;;;;;5054068;28;20040;-87
2022/08/28 05:51:13;;;;;;;14.68;13.18;;;18.50;40.10;;;;;;5054104;28;20466;-87
2022/08/28 05:53:41;;;;;;;13.93;12.73;;;18.50;40.20;;;;;;5053957;28;20051;-89
2022/08/28 05:56:13;;;;;;;14.35;12.95;;;18.60;43.40;;;;;;5053953;28;20108;-87
2022/08/28 05:58:39;;;;;;;14.27;12.98;;;18.60;38.50;;;;;;5036126;28;20021;-87
2022/08/28 06:01:13;;;;;;;14.05;12.68;;;18.60;38.00;;;;;;5053462;28;20025;-87
2022/08/28 06:03:40;;;;;;;14.13;12.65;;;18.50;40.30;;;;;;5053726;28;20020;-87
2022/08/28 06:06:07;;;;;;;13.63;12.40;;;18.70;40.00;;;;;;5053944;28;20033;-87
2022/08/28 06:08:33;;;;;;;14.07;12.75;;;18.80;37.80;;;;;;5053721;28;20029;-87
2022/08/28 06:11:01;;;;;;;13.98;12.60;;;19.00;37.80;;;;;;5053727;28;20025;-87
2022/08/28 06:13:27;;;;;;;14.57;13.07;;;19.00;35.70;;;;;;5053371;28;20048;-87
2022/08/28 06:15:53;;;;;;;13.40;12.20;;;19.00;40.10;;;;;;5053269;28;20043;-87
2022/08/28 06:18:18;;;;;;;15.98;13.27;;;19.00;33.20;;;;;;5035706;28;20017;-87
2022/08/28 06:20:45;;;;;;;14.50;13.07;;;19.20;35.40;;;;;;5053600;28;20032;-87
2022/08/28 06:23:15;;;;;;;13.65;12.48;;;19.20;40.30;;;;;;5053511;28;20048;-87
2022/08/28 06:25:47;;;;;;;13.68;12.38;;;19.20;38.90;;;;;;5053310;28;20053;-87
2022/08/28 06:28:16;;;;;;;14.23;12.75;;;19.30;41.00;;;;;;5053240;28;20132;-87
2022/08/28 06:30:42;;;;;;;14.52;12.43;;;19.50;40.50;;;;;;5052873;28;20021;-86
2022/08/28 06:33:09;;;;;;;14.50;13.20;;;19.40;34.40;;;;;;5053267;28;20501;-87
2022/08/28 06:35:41;;;;;;;13.80;12.57;;;19.50;40.90;;;;;;5052407;28;20400;-87
2022/08/28 06:38:07;;;;;;;13.27;12.07;;;19.60;38.40;;;;;;5053206;28;20021;-89
2022/08/28 06:40:41;;;;;;;13.70;12.40;;;19.60;39.60;;;;;;5053204;28;20029;-86
2022/08/28 06:43:07;;;;;;;13.07;11.75;;;19.70;39.00;;;;;;5052859;28;20109;-87
2022/08/28 06:45:34;;;;;;;14.20;12.20;;;19.80;31.40;;;;;;5052999;28;20112;-87
2022/08/28 06:48:00;;;;;;;12.98;11.63;;;19.90;39.80;;;;;;5053159;28;20096;-87
2022/08/28 06:50:26;;;;;;;13.30;11.98;;;20.00;37.70;;;;;;5053120;28;20021;-87
2022/08/28 06:52:51;;;;;;;12.13;10.95;;;20.10;33.20;;;;;;5052924;28;20386;-87
2022/08/28 06:55:17;;;;;;;11.65;10.63;;;20.40;36.40;;;;;;5052901;28;20071;-87
2022/08/28 06:57:43;;;;;;;12.30;11.20;;;20.40;37.00;;;;;;5052493;28;20029;-89
2022/08/28 07:00:09;;;;;;;11.55;10.45;;;20.40;34.40;;;;;;5052572;28;20497;-87
2022/08/28 07:02:35;;;;;;;11.65;10.50;;;20.40;35.80;;;;;;5052669;28;20563;-87
2022/08/28 07:05:00;;;;;;;10.45;9.55;;;20.50;32.20;;;;;;5052824;28;20029;-87
2022/08/28 07:07:26;;;;;;;11.75;9.93;;;20.70;32.80;;;;;;5052676;28;20426;-87
2022/08/28 07:09:51;;;;;;;11.48;10.02;;;20.70;33.90;;;;;;5052729;28;20370;-86
2022/08/28 07:12:18;;;;;;;10.25;9.23;;;20.80;33.00;;;;;;5052152;28;20010;-86
2022/08/28 07:14:43;;;;;;;11.70;9.88;;;20.90;33.10;;;;;;5052473;28;20068;-87
2022/08/28 07:17:09;;;;;;;11.07;9.98;;;20.90;33.70;;;;;;5052414;28;20053;-87
2022/08/28 07:19:35;;;;;;;10.75;9.73;;;21.10;38.90;;;;;;5052370;28;20024;-87
2022/08/28 07:22:01;;;;;;;10.93;9.93;;;21.00;39.60;;;;;;5052974;28;20394;-87
2022/08/28 07:24:28;;;;;;;10.98;9.85;;;21.00;31.30;;;;;;5052430;28;20029;-87
2022/08/28 07:26:54;;;;;;;12.35;11.20;;;20.90;37.60;;;;;;5052093;28;20021;-87
2022/08/28 07:29:21;;;;;;;11.32;10.32;;;21.10;34.00;;;;;;5052126;28;20049;-87
2022/08/28 07:31:52;;;;;;;11.05;10.00;;;21.20;47.20;;;;;;5052411;28;20032;-87
2022/08/28 07:34:20;;;;;;;10.77;9.77;;;21.40;36.20;;;;;;5052366;28;20031;-87
2022/08/28 07:36:46;;;;;;;10.13;9.10;;;21.20;35.20;;;;;;5052293;28;20040;-87
2022/08/28 07:39:13;;;;;;;10.95;9.93;;;21.40;36.50;;;;;;5052338;28;20100;-87
2022/08/28 07:41:41;;;;;;;12.07;10.93;;;21.70;35.50;;;;;;5052029;28;20087;-87
2022/08/28 07:46:55;;;;;;;12.90;11.48;;;21.70;35.20;;;;;;5053164;28;20064;-87
2022/08/28 07:49:22;;;;;;;11.90;10.63;;;21.70;35.70;;;;;;5056178;28;20362;-87
2022/08/28 07:51:47;;;;;;;11.55;10.55;;;21.70;32.40;;;;;;5056522;28;20043;-87
2022/08/28 07:54:14;;;;;;;11.13;10.13;;;21.80;32.20;;;;;;5056249;28;20533;-87
2022/08/28 07:56:40;;;;;;;15.07;11.13;;;21.90;36.80;;;;;;5055902;28;20037;-87
2022/08/28 07:59:07;;;;;;;11.60;10.43;;;22.00;29.30;;;;;;5056312;28;20108;-87
2022/08/28 08:01:38;;;;;;;12.65;11.27;;;22.10;34.00;;;;;;5055984;28;20033;-87
2022/08/28 08:04:06;;;;;;;11.15;10.10;;;22.10;34.20;;;;;;5056192;28;20104;-87
2022/08/28 08:06:32;;;;;;;12.10;10.70;;;22.10;35.90;;;;;;5056051;28;20123;-87
2022/08/28 08:08:58;;;;;;;11.82;10.27;;;22.20;37.80;;;;;;5056056;28;20021;-87
2022/08/28 08:11:25;;;;;;;11.73;10.63;;;22.30;35.30;;;;;;5055703;28;20033;-88
2022/08/28 08:13:52;;;;;;;12.88;11.63;;;22.40;39.00;;;;;;5055813;28;20056;-87
2022/08/28 08:16:21;;;;;;;11.77;10.77;;;22.60;38.30;;;;;;5055933;28;20037;-87
2022/08/28 08:18:48;;;;;;;11.75;10.65;;;22.50;38.30;;;;;;5055896;28;20075;-87
2022/08/28 08:21:15;;;;;;;12.20;10.85;;;22.60;36.90;;;;;;5055801;28;20055;-87
2022/08/28 08:23:41;;;;;;;12.93;11.60;;;22.80;36.80;;;;;;5055653;28;20032;-87
2022/08/28 08:26:11;;;;;;;13.35;12.15;;;22.60;30.20;;;;;;5055306;28;20025;-87
2022/08/28 08:28:38;;;;;;;11.75;10.55;;;22.90;36.80;;;;;;5055421;28;20151;-87
2022/08/28 08:31:05;;;;;;;11.50;10.40;;;23.20;35.10;;;;;;5055611;28;20017;-87
2022/08/28 08:33:32;;;;;;;12.18;10.77;;;23.30;35.30;;;;;;5055459;28;20020;-87
2022/08/28 08:35:58;;;;;;;13.25;11.95;;;23.40;45.40;;;;;;5055355;28;20032;-87
2022/08/28 08:38:24;;;;;;;13.05;11.75;;;23.30;33.60;;;;;;5055462;28;20031;-87
2022/08/28 08:40:50;;;;;;;14.55;11.05;;;23.50;29.10;;;;;;5055046;28;20391;-87
2022/08/28 08:43:18;;;;;;;12.50;11.30;;;23.70;31.80;;;;;;5055354;28;20017;-87
2022/08/28 08:45:46;;;;;;;12.07;10.88;;;23.80;36.40;;;;;;5055267;28;20477;-87
2022/08/28 08:48:32;;;;;;;12.68;11.45;;;23.70;35.90;;;;;;5055302;28;20021;-87
2022/08/28 08:51:03;;;;;;;11.80;10.70;;;23.70;34.60;;;;;;5055257;28;20486;-87
2022/08/28 08:53:42;;;;;;;11.77;10.68;;;23.80;34.40;;;;;;5055175;28;20032;-87
2022/08/28 08:56:14;;;;;;;11.85;10.75;;;23.90;31.90;;;;;;5055010;28;20054;-88
2022/08/28 08:58:44;;;;;;;12.18;11.15;;;24.20;33.60;;;;;;5036671;28;20021;-87
2022/08/28 09:01:12;;;;;;;11.18;10.13;;;24.40;34.00;;;;;;5055057;28;20071;-87
2022/08/28 09:04:13;;;;;;;12.15;10.82;;;24.40;32.40;;;;;;5054981;28;20063;-87
2022/08/28 09:06:38;;;;;;;11.70;10.52;;;24.40;34.30;;;;;;5055047;28;20024;-87
2022/08/28 09:09:14;;;;;;;11.95;10.25;;;24.50;32.00;;;;;;5054488;28;20433;-87
2022/08/28 09:11:53;;;;;;;11.50;10.40;;;24.40;35.10;;;;;;5054848;28;20406;-87
2022/08/28 09:14:35;;;;;;;10.90;9.90;;;24.60;34.70;;;;;;5054480;28;20040;-88
2022/08/28 09:17:02;;;;;;;10.80;9.80;;;24.60;37.00;;;;;;5046971;28;20489;-87
2022/08/28 09:19:29;;;;;;;11.02;9.93;;;24.90;36.70;;;;;;5054643;28;20429;-87
2022/08/28 09:21:55;;;;;;;11.02;9.95;;;25.10;37.30;;;;;;5054618;28;20021;-87
2022/08/28 09:24:28;;;;;;;10.77;9.63;;;25.10;33.00;;;;;;5036549;28;20429;-87
2022/08/28 09:26:59;;;;;;;11.10;9.95;;;25.00;39.30;;;;;;5054707;28;20028;-88
2022/08/28 09:29:37;;;;;;;10.80;9.65;;;24.70;39.80;;;;;;5054130;28;20049;-87
2022/08/28 09:32:43;;;;;;;10.77;9.77;;;24.80;39.50;;;;;;5054554;28;20024;-88
2022/08/28 09:35:23;;;;;;;11.10;9.73;;;24.90;34.60;;;;;;5054251;28;20018;-87
2022/08/28 09:37:49;;;;;;;11.13;10.02;;;24.90;36.90;;;;;;5053985;28;20056;-87
2022/08/28 09:43:30;;;;;;;10.82;9.85;;;25.40;33.70;;;;;;5054287;28;20087;-88
2022/08/28 09:46:03;;;;;;;11.27;9.57;;;25.40;50.00;;;;;;5054187;28;20056;-87
2022/08/28 09:48:42;;;;;;;10.57;9.57;;;25.50;41.30;;;;;;5054189;28;20079;-87
2022/08/28 09:51:09;;;;;;;10.05;9.07;;;25.50;39.50;;;;;;5054125;28;20043;-87
2022/08/28 09:53:41;;;;;;;10.13;8.98;;;25.70;37.00;;;;;;5053605;28;20590;-88
2022/08/28 09:56:26;;;;;;;10.50;9.52;;;25.80;39.30;;;;;;5054005;28;20513;-87
2022/08/28 09:58:56;;;;;;;9.55;8.65;;;25.70;39.60;;;;;;5053958;28;20100;-87
2022/08/28 10:01:40;;;;;;;10.13;9.10;;;26.00;38.20;;;;;;5053864;28;20032;-88
2022/08/28 10:04:24;;;;;;;8.95;8.18;;;26.60;36.90;;;;;;5053769;28;20025;-88
2022/08/28 10:07:03;;;;;;;9.18;8.40;;;27.10;41.30;;;;;;5053606;28;20033;-88
2022/08/28 10:09:29;;;;;;;9.98;8.98;;;30.80;46.80;;;;;;5053672;28;20478;-88
2022/08/28 10:12:18;;;;;;;8.73;7.95;;;33.70;42.50;;;;;;5052666;28;20031;-87
2022/08/28 10:14:53;;;;;;;9.23;8.45;;;37.10;42.20;;;;;;5053398;28;20029;-88
2022/08/28 10:17:37;;;;;;;8.73;7.85;;;38.90;46.90;;;;;;5053478;28;20439;-88
2022/08/28 10:20:21;;;;;;;9.52;8.55;;;40.30;45.40;;;;;;5053523;28;20082;-87
2022/08/28 10:23:20;;;;;;;8.65;7.90;;;41.40;49.90;;;;;;5053004;28;20029;-88
2022/08/28 10:26:36;;;;;;;8.15;7.35;;;41.80;54.70;;;;;;5053372;28;20410;-88
2022/08/28 10:29:25;;;;;;;8.15;7.55;;;42.80;54.40;;;;;;4965003;28;20047;-88
2022/08/28 10:32:23;;;;;;;8.00;7.15;;;42.90;54.00;;;;;;5069882;28;20444;-88
2022/08/28 10:35:04;;;;;;;7.88;7.28;;;43.30;46.70;;;;;;5069841;28;20040;-88
2022/08/28 10:37:54;;;;;;;6.80;6.28;;;44.20;45.40;;;;;;5069389;28;20505;-89
2022/08/28 10:40:24;;;;;;;7.50;6.90;;;43.80;47.50;;;;;;5069828;28;20021;-88
2022/08/28 10:42:59;;;;;;;7.43;6.82;;;44.60;47.80;;;;;;5069418;28;20486;-88
2022/08/28 10:45:26;;;;;;;7.90;7.18;;;45.20;46.40;;;;;;5069753;28;20020;-89
2022/08/28 10:47:57;;;;;;;7.95;7.22;;;45.10;39.40;;;;;;5069706;28;20024;-88
2022/08/28 10:50:39;;;;;;;8.00;7.28;;;45.70;41.80;;;;;;5084791;28;20494;-89
2022/08/28 10:53:09;;;;;;;7.10;6.60;;;45.90;44.30;;;;;;5069472;28;20029;-88
2022/08/28 10:55:58;;;;;;;7.80;7.10;;;45.70;44.60;;;;;;5069452;28;20127;-89
2022/08/28 10:58:26;;;;;;;7.97;7.28;;;46.70;38.70;;;;;;5069394;28;20382;-89
2022/08/28 11:01:14;;;;;;;7.28;6.72;;;46.40;41.00;;;;;;5069336;28;20035;-89
2022/08/28 11:03:45;;;;;;;7.57;6.97;;;45.80;27.90;;;;;;5068822;28;20037;-89
2022/08/28 11:06:32;;;;;;;7.60;6.90;;;46.50;34.30;;;;;;5069061;28;20074;-89
2022/08/28 11:09:23;;;;;;;7.53;6.90;;;46.50;34.80;;;;;;5069320;28;20035;-89
2022/08/28 11:11:48;;;;;;;8.38;6.68;;;45.90;23.30;;;;;;5068913;28;20063;-89
2022/08/28 11:14:32;;;;;;;8.00;7.30;;;46.40;30.20;;;;;;5068963;28;20061;-89
2022/08/28 11:17:26;;;;;;;8.13;7.53;;;47.50;32.00;;;;;;5069091;28;20036;-89
2022/08/28 11:19:58;;;;;;;7.85;7.18;;;46.30;28.80;;;;;;5068602;28;20086;-89
2022/08/28 11:22:33;;;;;;;8.10;7.40;;;44.80;28.70;;;;;;5068887;28;20611;-89
2022/08/28 11:25:22;;;;;;;7.30;6.80;;;46.20;27.40;;;;;;5068775;28;20501;-89
2022/08/28 11:28:09;;;;;;;7.93;7.13;;;47.40;26.70;;;;;;5026707;28;20044;-89
2022/08/28 11:30:37;;;;;;;7.00;6.40;;;46.00;27.70;;;;;;5026471;28;20128;-89
2022/08/28 11:33:06;;;;;;;7.47;6.95;;;46.30;24.70;;;;;;5026976;28;20033;-89
2022/08/28 11:35:44;;;;;;;7.95;7.25;;;46.70;25.90;;;;;;5026823;28;20028;-89
2022/08/28 11:38:10;;;;;;;7.57;6.97;;;47.20;16.70;;;;;;5009985;28;20129;-90
2022/08/28 11:40:52;;;;;;;7.38;6.88;;;47.50;19.90;;;;;;5026773;28;20033;-89
2022/08/28 11:43:19;;;;;;;8.13;7.43;;;47.10;15.50;;;;;;5013721;28;20033;-90
2022/08/28 11:45:45;;;;;;;7.88;7.13;;;47.40;17.90;;;;;;5013294;28;20491;-89
2022/08/28 11:48:32;;;;;;;7.68;6.97;;;47.10;18.30;;;;;;5013024;28;20045;-89
2022/08/28 11:51:03;;;;;;;7.70;7.00;;;47.60;21.60;;;;;;4996642;28;20058;-90
2022/08/28 11:53:56;;;;;;;7.68;7.18;;;46.50;23.70;;;;;;5013151;28;20029;-89
2022/08/28 11:56:31;;;;;;;7.72;7.00;;;46.60;23.60;;;;;;5013276;28;20030;-89
2022/08/28 11:58:59;;;;;;;7.97;7.22;;;48.30;16.90;;;;;;5013108;28;20113;-89
2022/08/28 12:01:29;;;;;;;7.50;6.82;;;47.70;15.10;;;;;;5013100;28;20117;-89
2022/08/28 12:04:11;;;;;;;8.43;7.05;;;48.00;15.10;;;;;;5014808;28;20479;-89
2022/08/28 12:06:53;;;;;;;7.55;6.85;;;48.30;14.40;;;;;;5034968;28;20401;-89
2022/08/28 12:09:41;;;;;;;7.57;6.88;;;48.00;16.90;;;;;;5035100;28;20474;-90
2022/08/28 12:12:12;;;;;;;7.40;6.70;;;48.20;9.50;;;;;;5034759;28;20037;-89
2022/08/28 12:14:38;;;;;;;6.95;6.35;;;48.60;11.30;;;;;;5045424;28;20024;-89
2022/08/28 12:17:20;;;;;;;6.70;6.20;;;48.40;11.60;;;;;;5054390;28;20033;-89
2022/08/28 12:20:13;;;;;;;6.88;6.38;;;48.20;13.20;;;;;;5054615;28;20514;-88
2022/08/28 12:22:53;;;;;;;6.53;6.03;;;47.90;15.80;;;;;;5047566;28;20036;-89
2022/08/28 12:25:34;;;;;;;6.53;6.05;;;46.40;1.10;;;;;;5054706;28;20034;-89
2022/08/28 12:28:16;;;;;;;6.88;6.22;;;46.90;7.60;;;;;;5054963;28;20021;-89
2022/08/28 12:31:06;;;;;;;6.65;6.05;;;47.10;8.60;;;;;;5054196;28;20120;-89
2022/08/28 12:33:56;;;;;;;6.30;5.80;;;46.60;11.10;;;;;;5052883;28;20024;-90
2022/08/28 12:36:25;;;;;;;6.45;6.03;;;47.80;7.30;;;;;;5054456;28;20569;-90
2022/08/28 12:38:53;;;;;;;6.50;6.00;;;47.50;8.60;;;;;;5054214;28;20029;-89
2022/08/28 12:41:21;;;;;;;6.30;5.90;;;47.60;13.80;;;;;;5054267;28;20363;-89
2022/08/28 12:43:50;;;;;;;6.10;5.70;;;47.00;12.40;;;;;;5054083;28;20064;-89
2022/08/28 12:46:28;;;;;;;6.10;5.63;;;46.60;11.30;;;;;;5053746;28;20025;-89
2022/08/28 12:48:58;;;;;;;6.50;5.93;;;47.30;8.90;;;;;;5054081;28;20389;-88
2022/08/28 12:51:33;;;;;;;6.25;5.80;;;47.90;9.40;;;;;;5054214;28;20029;-89
2022/08/28 12:54:05;;;;;;;5.90;5.38;;;47.40;11.50;;;;;;5053128;28;20087;-89
2022/08/28 12:56:35;;;;;;;6.43;5.90;;;48.10;11.30;;;;;;5053974;28;20505;-89
2022/08/28 12:59:58;;;;;;;6.28;5.80;;;48.60;10.70;;;;;;5054020;28;20371;-90
2022/08/28 13:02:32;;;;;;;6.53;5.93;;;48.40;10.70;;;;;;5031479;28;20029;-90